createdAt,value
2022-09-14T00:01:25.333Z,18.25
2022-09-14T00:03:58.346Z,18.22
2022-09-14T00:06:25.133Z,18.20
2022-09-14T00:08:53.761Z,18.19
2022-09-14T00:11:21.664Z,18.16
2022-09-14T00:13:49.009Z,18.13
2022-09-14T00:16:21.906Z,18.11
2022-09-14T00:18:57.790Z,18.08
2022-09-14T00:21:24.406Z,18.05
2022-09-14T00:23:50.886Z,18.01
2022-09-14T00:26:20.346Z,17.98
2022-09-14T00:28:53.123Z,17.96
2022-09-14T00:31:20.876Z,17.93
2022-09-14T00:33:48.964Z,17.90
2022-09-14T00:36:19.257Z,17.88
2022-09-14T00:38:47.172Z,17.84
2022-09-14T00:41:16.641Z,17.81
2022-09-14T00:44:11.702Z,17.78
2022-09-14T00:46:42.128Z,17.74
2022-09-14T00:49:37.487Z,17.71
2022-09-14T00:52:16.183Z,17.67
2022-09-14T00:54:54.939Z,17.63
2022-09-14T00:57:22.489Z,17.59
2022-09-14T00:59:51.728Z,17.58
2022-09-14T01:02:21.610Z,17.53
2022-09-14T01:04:48.730Z,17.51
2022-09-14T01:07:52.401Z,17.51
2022-09-14T01:10:30.856Z,17.47
2022-09-14T01:13:12.725Z,17.44
2022-09-14T01:15:58.324Z,17.42
2022-09-14T01:18:29.451Z,17.38
2022-09-14T01:21:10.144Z,17.34
2022-09-14T01:23:47.578Z,17.30
2022-09-14T01:26:40.886Z,17.26
2022-09-14T01:29:29.611Z,17.21
2022-09-14T01:32:02.169Z,17.17
2022-09-14T01:34:36.662Z,17.11
2022-09-14T01:37:13.280Z,17.08
2022-09-14T01:39:47.157Z,17.03
2022-09-14T01:42:17.043Z,16.98
2022-09-14T01:44:47.878Z,16.94
2022-09-14T01:47:31.185Z,16.89
2022-09-14T01:50:06.973Z,16.85
2022-09-14T01:52:43.513Z,16.82
2022-09-14T01:55:18.345Z,16.78
2022-09-14T01:58:07.078Z,16.75
2022-09-14T02:00:34.188Z,16.71
2022-09-14T02:03:27.310Z,16.70
2022-09-14T02:06:14.784Z,16.66
2022-09-14T02:08:41.480Z,16.64
2022-09-14T02:11:08.220Z,16.61
2022-09-14T02:13:34.757Z,16.58
2022-09-14T02:16:01.407Z,16.57
2022-09-14T02:18:28.065Z,16.54
2022-09-14T02:21:09.191Z,16.53
2022-09-14T02:23:36.296Z,16.52
2022-09-14T02:26:02.956Z,16.49
2022-09-14T02:28:29.644Z,16.48
2022-09-14T02:31:17.016Z,16.48
2022-09-14T02:34:02.246Z,16.46
2022-09-14T02:36:43.839Z,16.46
2022-09-14T02:39:22.455Z,16.43
2022-09-14T02:41:56.363Z,16.42
2022-09-14T02:44:39.610Z,16.40
2022-09-14T02:47:19.542Z,16.38
2022-09-14T02:50:12.616Z,16.36
2022-09-14T02:52:52.601Z,16.34
2022-09-14T02:55:21.662Z,16.30
2022-09-14T02:58:10.342Z,16.31
2022-09-14T03:00:45.430Z,16.30
2022-09-14T03:03:15.374Z,16.30
2022-09-14T03:05:42.311Z,16.30
2022-09-14T03:08:10.533Z,16.32
2022-09-14T03:10:37.667Z,16.33
2022-09-14T03:13:04.300Z,16.34
2022-09-14T03:15:31.232Z,16.34
2022-09-14T03:17:57.862Z,16.34
2022-09-14T03:20:27.254Z,16.34
2022-09-14T03:22:53.983Z,16.32
2022-09-14T03:25:22.912Z,16.31
2022-09-14T03:27:57.928Z,16.31
2022-09-14T03:30:24.979Z,16.29
2022-09-14T03:32:51.739Z,16.28
2022-09-14T03:35:18.668Z,16.26
2022-09-14T03:37:46.628Z,16.23
2022-09-14T03:40:18.077Z,16.22
2022-09-14T03:42:51.797Z,16.20
2022-09-14T03:45:19.478Z,16.19
2022-09-14T03:47:46.897Z,16.16
2022-09-14T03:50:15.178Z,16.14
2022-09-14T03:52:41.677Z,16.12
2022-09-14T03:55:09.396Z,16.09
2022-09-14T03:57:35.937Z,16.07
2022-09-14T04:00:03.089Z,16.05
2022-09-14T04:02:29.903Z,16.04
2022-09-14T04:04:56.310Z,16.02
2022-09-14T04:07:22.727Z,16.00
2022-09-14T04:09:49.247Z,15.99
2022-09-14T04:12:15.673Z,15.98
2022-09-14T04:14:42.127Z,15.95
2022-09-14T04:17:08.872Z,15.94
2022-09-14T04:19:37.558Z,15.93
2022-09-14T04:22:05.081Z,15.90
2022-09-14T04:24:31.651Z,15.89
2022-09-14T04:26:58.277Z,15.86
2022-09-14T04:29:24.875Z,15.84
2022-09-14T04:31:51.558Z,15.80
2022-09-14T04:34:17.981Z,15.80
2022-09-14T04:36:44.403Z,15.77
2022-09-14T04:39:13.825Z,15.76
2022-09-14T04:41:40.818Z,15.74
2022-09-14T04:44:07.801Z,15.72
2022-09-14T04:46:35.889Z,15.73
2022-09-14T04:49:02.606Z,15.72
2022-09-14T04:51:31.646Z,15.73
2022-09-14T04:54:02.260Z,15.72
2022-09-14T04:56:30.847Z,15.73
2022-09-14T04:58:59.415Z,15.72
2022-09-14T05:01:31.700Z,15.74
2022-09-14T05:03:58.962Z,15.74
2022-09-14T05:06:30.879Z,15.75
2022-09-14T05:08:57.436Z,15.75
2022-09-14T05:11:30.116Z,15.76
2022-09-14T05:13:57.883Z,15.76
2022-09-14T05:16:27.548Z,15.78
2022-09-14T05:18:56.477Z,15.79
2022-09-14T05:21:24.389Z,15.83
2022-09-14T05:23:56.238Z,15.85
2022-09-14T05:26:24.393Z,15.86
2022-09-14T05:28:52.666Z,15.88
2022-09-14T05:31:20.465Z,15.90
2022-09-14T05:33:47.595Z,15.91
2022-09-14T05:36:14.114Z,15.93
2022-09-14T05:38:41.050Z,15.95
2022-09-14T05:41:10.417Z,15.98
2022-09-14T05:43:37.371Z,16.00
2022-09-14T05:46:05.721Z,16.03
2022-09-14T05:48:33.633Z,16.06
2022-09-14T05:51:18.765Z,16.11
2022-09-14T05:53:50.352Z,16.14
2022-09-14T05:56:17.969Z,16.16
2022-09-14T05:58:45.330Z,16.18
2022-09-14T06:01:20.880Z,16.22
2022-09-14T06:03:48.672Z,16.26
2022-09-14T06:06:18.247Z,16.29
2022-09-14T06:08:45.479Z,16.33
2022-09-14T06:11:15.463Z,16.39
2022-09-14T06:13:42.464Z,16.42
2022-09-14T06:16:12.896Z,16.48
2022-09-14T06:18:40.761Z,16.52
2022-09-14T06:21:08.304Z,16.55
2022-09-14T06:23:35.311Z,16.58
2022-09-14T06:26:04.375Z,16.62
2022-09-14T06:28:31.735Z,16.64
2022-09-14T06:30:58.255Z,16.67
2022-09-14T06:33:24.775Z,16.72
2022-09-14T06:36:03.089Z,16.79
2022-09-14T06:38:30.244Z,16.80
2022-09-14T06:40:58.070Z,16.83
2022-09-14T06:43:29.764Z,16.87
2022-09-14T06:45:59.938Z,16.93
2022-09-14T06:48:28.610Z,16.97
2022-09-14T06:50:55.013Z,17.00
2022-09-14T06:53:21.722Z,17.06
2022-09-14T06:55:48.202Z,17.10
2022-09-14T06:58:14.923Z,17.15
2022-09-14T07:00:41.549Z,17.22
2022-09-14T07:03:08.156Z,17.26
2022-09-14T07:05:34.913Z,17.32
2022-09-14T07:08:01.510Z,17.39
2022-09-14T07:10:28.311Z,17.44
2022-09-14T07:12:55.130Z,17.52
2022-09-14T07:15:22.150Z,17.61
2022-09-14T07:17:48.567Z,17.69
2022-09-14T07:20:15.698Z,17.80
2022-09-14T07:22:42.559Z,17.88
2022-09-14T07:25:10.096Z,17.97
2022-09-14T07:27:38.705Z,18.07
2022-09-14T07:30:07.660Z,18.16
2022-09-14T07:32:34.146Z,18.25
2022-09-14T07:35:01.007Z,18.34
2022-09-14T07:37:29.334Z,18.43
2022-09-14T07:39:57.273Z,18.50
2022-09-14T07:42:23.740Z,18.59
2022-09-14T07:44:50.202Z,18.65
2022-09-14T07:47:17.011Z,18.72
2022-09-14T07:49:43.446Z,18.79
2022-09-14T07:52:11.266Z,18.86
2022-09-14T07:54:37.767Z,18.94
2022-09-14T07:57:04.158Z,19.01
2022-09-14T07:59:38.482Z,19.09
2022-09-14T08:02:07.464Z,19.18
2022-09-14T08:04:35.867Z,19.25
2022-09-14T08:07:02.705Z,19.34
2022-09-14T08:09:29.235Z,19.42
2022-09-14T08:11:56.092Z,19.49
2022-09-14T08:14:23.020Z,19.58
2022-09-14T08:16:50.080Z,19.64
2022-09-14T08:19:18.400Z,19.71
2022-09-14T08:21:47.128Z,19.77
2022-09-14T08:24:16.823Z,19.83
2022-09-14T08:26:43.642Z,19.89
2022-09-14T08:29:12.232Z,19.97
2022-09-14T08:31:48.671Z,20.06
2022-09-14T08:34:17.327Z,20.14
2022-09-14T08:36:45.665Z,20.25
2022-09-14T08:39:14.121Z,20.35
2022-09-14T08:41:43.151Z,20.45
2022-09-14T08:44:31.470Z,20.58
2022-09-14T08:47:09.328Z,20.70
2022-09-14T08:49:58.254Z,20.79
2022-09-14T08:52:43.949Z,20.87
2022-09-14T08:55:29.194Z,20.93
2022-09-14T08:58:01.750Z,20.98
2022-09-14T09:00:39.323Z,21.02
2022-09-14T09:03:43.473Z,21.05
2022-09-14T09:06:16.360Z,21.09
2022-09-14T09:08:54.626Z,21.10
2022-09-14T09:11:24.875Z,21.10
2022-09-14T09:13:53.770Z,21.11
2022-09-14T09:16:25.007Z,21.11
2022-09-14T09:19:07.613Z,21.12
2022-09-14T09:21:41.561Z,21.12
2022-09-14T09:24:29.746Z,21.12
2022-09-14T09:26:56.224Z,21.07
2022-09-14T09:29:22.672Z,21.04
2022-09-14T09:31:53.160Z,21.01
2022-09-14T09:34:26.766Z,20.97
2022-09-14T09:36:55.829Z,20.90
2022-09-14T09:39:24.365Z,20.88
2022-09-14T09:42:12.637Z,20.86
2022-09-14T09:45:01.759Z,20.85
2022-09-14T09:47:34.806Z,20.82
2022-09-14T09:50:26.451Z,20.86
2022-09-14T09:52:55.598Z,20.85
2022-09-14T09:55:26.534Z,20.86
2022-09-14T09:57:54.628Z,20.88
2022-09-14T10:00:24.814Z,20.91
2022-09-14T10:02:52.830Z,20.94
2022-09-14T10:05:23.518Z,21.00
2022-09-14T10:07:49.858Z,21.07
2022-09-14T10:10:19.582Z,21.14
2022-09-14T10:12:49.072Z,21.21
2022-09-14T10:15:17.466Z,21.26
2022-09-14T10:18:11.741Z,21.33
2022-09-14T10:20:44.216Z,21.39
2022-09-14T10:23:19.710Z,21.44
2022-09-14T10:25:47.929Z,21.47
2022-09-14T10:28:27.318Z,21.54
2022-09-14T10:31:19.751Z,21.58
2022-09-14T10:33:51.611Z,21.62
2022-09-14T10:36:32.151Z,21.66
2022-09-14T10:39:19.735Z,21.69
2022-09-14T10:42:10.107Z,21.70
2022-09-14T10:44:51.059Z,21.71
2022-09-14T10:47:38.197Z,21.75
2022-09-14T10:50:19.657Z,21.76
2022-09-14T10:53:20.474Z,21.79
2022-09-14T10:56:02.777Z,21.79
2022-09-14T10:58:50.491Z,21.77
2022-09-14T11:01:33.377Z,21.76
2022-09-14T11:04:37.363Z,21.72
2022-09-14T11:07:12.514Z,21.70
2022-09-14T11:09:48.234Z,21.71
2022-09-14T11:12:28.793Z,21.72
2022-09-14T11:15:16.309Z,21.76
2022-09-14T11:17:58.023Z,21.79
2022-09-14T11:20:43.129Z,21.82
2022-09-14T11:23:40.590Z,21.88
2022-09-14T11:26:14.636Z,21.94
2022-09-14T11:28:59.550Z,22.02
2022-09-14T11:31:33.711Z,22.09
2022-09-14T11:34:25.921Z,22.19
2022-09-14T11:37:08.473Z,22.29
2022-09-14T11:39:43.099Z,22.37
2022-09-14T11:42:18.253Z,22.44
2022-09-14T11:44:47.883Z,22.47
2022-09-14T11:47:20.025Z,22.53
2022-09-14T11:50:12.508Z,22.56
2022-09-14T11:52:39.054Z,22.56
2022-09-14T11:55:15.349Z,22.61
2022-09-14T11:57:47.425Z,22.62
2022-09-14T12:00:20.205Z,22.63
2022-09-14T12:03:00.220Z,22.62
2022-09-14T12:05:31.784Z,22.59
2022-09-14T12:08:00.277Z,22.56
2022-09-14T12:10:27.308Z,22.53
2022-09-14T12:12:58.614Z,22.51
2022-09-14T12:15:24.960Z,22.49
2022-09-14T12:18:20.374Z,22.52
2022-09-14T12:20:52.850Z,22.53
2022-09-14T12:23:37.337Z,22.56
2022-09-14T12:26:26.397Z,22.62
2022-09-14T12:28:56.203Z,22.68
2022-09-14T12:31:39.443Z,22.73
2022-09-14T12:34:16.824Z,22.76
2022-09-14T12:36:43.305Z,22.75
2022-09-14T12:39:27.893Z,22.77
2022-09-14T12:41:54.229Z,22.77
2022-09-14T12:44:39.329Z,22.82
2022-09-14T12:47:35.715Z,22.87
2022-09-14T12:50:12.443Z,22.91
2022-09-14T12:52:38.838Z,22.93
2022-09-14T12:55:24.004Z,22.96
2022-09-14T12:58:19.050Z,22.98
2022-09-14T13:01:16.428Z,22.96
2022-09-14T13:03:54.946Z,22.95
2022-09-14T13:06:23.114Z,22.90
2022-09-14T13:08:54.793Z,22.87
2022-09-14T13:11:24.705Z,22.86
2022-09-14T13:13:51.267Z,22.84
2022-09-14T13:16:27.333Z,22.86
2022-09-14T13:19:02.146Z,22.88
2022-09-14T13:21:28.586Z,22.88
2022-09-14T13:23:55.196Z,22.91
2022-09-14T13:26:30.056Z,22.95
2022-09-14T13:29:00.490Z,22.97
2022-09-14T13:31:39.365Z,22.98
2022-09-14T13:34:06.224Z,22.99
2022-09-14T13:36:36.651Z,23.01
2022-09-14T13:39:04.211Z,23.00
2022-09-14T13:41:32.347Z,23.03
2022-09-14T13:44:00.143Z,23.05
2022-09-14T13:46:27.894Z,23.07
2022-09-14T13:48:55.498Z,23.08
2022-09-14T13:51:25.387Z,23.10
2022-09-14T13:53:57.017Z,23.12
2022-09-14T13:56:31.295Z,23.13
2022-09-14T13:59:22.507Z,23.12
2022-09-14T14:02:09.041Z,23.10
2022-09-14T14:04:38.317Z,23.05
2022-09-14T14:07:13.725Z,23.02
2022-09-14T14:09:53.611Z,22.99
2022-09-14T14:12:37.567Z,22.97
2022-09-14T14:15:26.999Z,22.95
2022-09-14T14:17:54.190Z,22.99
2022-09-14T14:20:27.014Z,23.04
2022-09-14T14:22:59.447Z,23.10
2022-09-14T14:25:35.102Z,23.17
2022-09-14T14:28:04.103Z,23.23
2022-09-14T14:30:33.690Z,23.30
2022-09-14T14:33:01.043Z,23.37
2022-09-14T14:35:32.175Z,23.44
2022-09-14T14:37:58.941Z,23.48
2022-09-14T14:40:29.909Z,23.52
2022-09-14T14:42:58.432Z,23.55
2022-09-14T14:45:27.309Z,23.56
2022-09-14T14:47:55.389Z,23.53
2022-09-14T14:50:34.020Z,23.49
2022-09-14T14:53:01.698Z,23.44
2022-09-14T14:55:31.240Z,23.40
2022-09-14T14:58:01.064Z,23.38
2022-09-14T15:00:30.332Z,23.35
2022-09-14T15:02:56.790Z,23.34
2022-09-14T15:05:23.238Z,23.34
2022-09-14T15:07:52.406Z,23.35
2022-09-14T15:10:19.866Z,23.35
2022-09-14T15:12:46.381Z,23.38
2022-09-14T15:15:15.127Z,23.40
2022-09-14T15:17:42.481Z,23.42
2022-09-14T15:20:13.024Z,23.46
2022-09-14T15:22:42.335Z,23.49
2022-09-14T15:25:09.861Z,23.51
2022-09-14T15:27:36.334Z,23.54
2022-09-14T15:30:04.062Z,23.56
2022-09-14T15:32:30.885Z,23.58
2022-09-14T15:34:57.417Z,23.59
2022-09-14T15:37:23.871Z,23.62
2022-09-14T15:39:53.427Z,23.61
2022-09-14T15:42:20.531Z,23.62
2022-09-14T15:44:46.974Z,23.64
2022-09-14T15:47:14.861Z,23.64
2022-09-14T15:49:42.412Z,23.64
2022-09-14T15:52:10.278Z,23.64
2022-09-14T15:54:37.523Z,23.61
2022-09-14T15:57:06.279Z,23.56
2022-09-14T15:59:33.223Z,23.51
2022-09-14T16:01:59.679Z,23.43
2022-09-14T16:04:26.472Z,23.35
2022-09-14T16:06:52.907Z,23.29
2022-09-14T16:09:21.614Z,23.21
2022-09-14T16:11:48.786Z,23.16
2022-09-14T16:14:15.196Z,23.13
2022-09-14T16:16:41.936Z,23.10
2022-09-14T16:19:11.473Z,23.07
2022-09-14T16:21:38.557Z,23.03
2022-09-14T16:24:08.409Z,22.98
2022-09-14T16:26:36.648Z,22.95
2022-09-14T16:29:04.617Z,22.89
2022-09-14T16:31:33.773Z,22.86
2022-09-14T16:34:02.891Z,22.81
2022-09-14T16:36:33.934Z,22.78
2022-09-14T16:39:02.715Z,22.72
2022-09-14T16:41:30.005Z,22.68
2022-09-14T16:43:58.334Z,22.64
2022-09-14T16:46:26.734Z,22.60
2022-09-14T16:48:54.124Z,22.55
2022-09-14T16:51:22.971Z,22.52
2022-09-14T16:53:50.908Z,22.46
2022-09-14T16:56:27.079Z,22.42
2022-09-14T16:58:55.277Z,22.33
2022-09-14T17:01:28.665Z,22.27
2022-09-14T17:03:57.376Z,22.18
2022-09-14T17:06:27.143Z,22.10
2022-09-14T17:08:55.655Z,22.02
2022-09-14T17:11:22.395Z,21.97
2022-09-14T17:13:48.906Z,21.86
2022-09-14T17:16:18.797Z,21.79
2022-09-14T17:18:48.784Z,21.71
2022-09-14T17:21:24.137Z,21.64
2022-09-14T17:23:51.006Z,21.56
2022-09-14T17:26:19.310Z,21.47
2022-09-14T17:28:47.646Z,21.39
2022-09-14T17:31:18.224Z,21.33
2022-09-14T17:33:45.070Z,21.24
2022-09-14T17:36:12.157Z,21.17
2022-09-14T17:38:41.370Z,21.10
2022-09-14T17:41:15.152Z,21.01
2022-09-14T17:43:42.646Z,20.92
2022-09-14T17:46:14.956Z,20.85
2022-09-14T17:48:42.330Z,20.77
2022-09-14T17:51:11.989Z,20.69
2022-09-14T17:53:39.886Z,20.61
2022-09-14T17:56:08.465Z,20.52
2022-09-14T17:58:35.797Z,20.45
2022-09-14T18:01:11.277Z,20.39
2022-09-14T18:03:39.443Z,20.30
2022-09-14T18:06:08.370Z,20.22
2022-09-14T18:08:35.729Z,20.14
2022-09-14T18:11:14.965Z,20.08
2022-09-14T18:13:46.875Z,20.01
2022-09-14T18:16:14.931Z,19.92
2022-09-14T18:18:42.008Z,19.84
2022-09-14T18:21:09.202Z,19.77
2022-09-14T18:23:36.095Z,19.70
2022-09-14T18:26:06.746Z,19.62
2022-09-14T18:28:34.751Z,19.56
2022-09-14T18:31:07.918Z,19.50
2022-09-14T18:33:35.615Z,19.42
2022-09-14T18:36:02.855Z,19.35
2022-09-14T18:38:30.148Z,19.28
2022-09-14T18:41:06.380Z,19.24
2022-09-14T18:43:33.304Z,19.16
2022-09-14T18:46:00.390Z,19.11
2022-09-14T18:48:26.896Z,19.05
2022-09-14T18:50:53.390Z,18.99
2022-09-14T18:53:19.839Z,18.95
2022-09-14T18:55:46.336Z,18.90
2022-09-14T18:58:12.710Z,18.84
2022-09-14T19:00:46.105Z,18.80
2022-09-14T19:03:12.952Z,18.74
2022-09-14T19:05:43.851Z,18.69
2022-09-14T19:08:13.445Z,18.63
2022-09-14T19:10:40.016Z,18.58
2022-09-14T19:13:07.216Z,18.51
2022-09-14T19:15:33.787Z,18.47
2022-09-14T19:18:00.505Z,18.41
2022-09-14T19:20:43.032Z,18.38
2022-09-14T19:23:13.671Z,18.31
2022-09-14T19:25:40.521Z,18.27
2022-09-14T19:28:07.472Z,18.24
2022-09-14T19:30:36.244Z,18.20
2022-09-14T19:33:02.921Z,18.17
2022-09-14T19:35:30.239Z,18.13
2022-09-14T19:37:57.560Z,18.11
2022-09-14T19:40:24.671Z,18.08
2022-09-14T19:42:51.750Z,18.05
2022-09-14T19:45:18.746Z,18.02
2022-09-14T19:47:45.732Z,17.98
2022-09-14T19:50:12.293Z,17.96
2022-09-14T19:52:38.718Z,17.94
2022-09-14T19:55:05.746Z,17.93
2022-09-14T19:57:32.217Z,17.91
2022-09-14T19:59:58.651Z,17.91
2022-09-14T20:02:25.176Z,17.91
2022-09-14T20:04:51.702Z,17.93
2022-09-14T20:07:18.648Z,17.94
2022-09-14T20:09:45.457Z,17.95
2022-09-14T20:12:11.838Z,17.97
2022-09-14T20:14:38.243Z,17.99
2022-09-14T20:17:04.783Z,18.01
2022-09-14T20:19:32.573Z,18.03
2022-09-14T20:21:59.067Z,18.04
2022-09-14T20:24:28.750Z,18.05
2022-09-14T20:26:59.805Z,18.07
2022-09-14T20:29:30.054Z,18.06
2022-09-14T20:31:57.758Z,18.04
2022-09-14T20:34:24.471Z,18.04
2022-09-14T20:36:52.317Z,18.01
2022-09-14T20:39:20.815Z,17.99
2022-09-14T20:41:47.275Z,17.99
2022-09-14T20:44:14.130Z,17.97
2022-09-14T20:46:42.956Z,17.96
2022-09-14T20:49:12.169Z,17.93
2022-09-14T20:51:39.140Z,17.89
2022-09-14T20:54:06.962Z,17.88
2022-09-14T20:56:35.491Z,17.84
2022-09-14T20:59:03.559Z,17.80
2022-09-14T21:01:32.601Z,17.77
2022-09-14T21:04:05.385Z,17.75
2022-09-14T21:06:32.344Z,17.72
2022-09-14T21:09:00.933Z,17.68
2022-09-14T21:11:28.412Z,17.66
2022-09-14T21:13:57.605Z,17.63
2022-09-14T21:16:27.731Z,17.59
2022-09-14T21:19:00.324Z,17.57
2022-09-14T21:21:27.961Z,17.52
2022-09-14T21:23:56.229Z,17.51
2022-09-14T21:26:23.586Z,17.47
2022-09-14T21:28:55.465Z,17.46
2022-09-14T21:31:22.318Z,17.42
2022-09-14T21:33:54.586Z,17.39
2022-09-14T21:36:23.983Z,17.33
2022-09-14T21:38:52.213Z,17.28
2022-09-14T21:41:19.594Z,17.22
2022-09-14T21:43:46.129Z,17.18
2022-09-14T21:46:13.002Z,17.12
2022-09-14T21:48:39.483Z,17.05
2022-09-14T21:51:17.060Z,16.99
2022-09-14T21:53:48.437Z,16.95
2022-09-14T21:56:16.361Z,16.86
2022-09-14T21:58:43.514Z,16.81
2022-09-14T22:01:11.295Z,16.74
2022-09-14T22:03:37.770Z,16.68
2022-09-14T22:06:07.242Z,16.63
2022-09-14T22:08:35.276Z,16.58
2022-09-14T22:11:03.031Z,16.53
2022-09-14T22:13:30.199Z,16.48
2022-09-14T22:15:56.669Z,16.43
2022-09-14T22:18:23.130Z,16.40
2022-09-14T22:20:57.247Z,16.36
2022-09-14T22:23:23.877Z,16.33
2022-09-14T22:25:50.463Z,16.31
2022-09-14T22:28:17.053Z,16.28
2022-09-14T22:30:48.068Z,16.26
2022-09-14T22:33:14.610Z,16.23
2022-09-14T22:35:51.111Z,16.22
2022-09-14T22:38:17.624Z,16.20
2022-09-14T22:40:43.997Z,16.20
2022-09-14T22:43:10.394Z,16.19
2022-09-14T22:45:36.809Z,16.20
2022-09-14T22:48:03.353Z,16.20
2022-09-14T22:50:29.723Z,16.20
2022-09-14T22:52:56.099Z,16.21
2022-09-14T22:55:22.486Z,16.23
2022-09-14T22:57:49.970Z,16.24
2022-09-14T23:00:16.482Z,16.24
2022-09-14T23:02:42.905Z,16.28
2022-09-14T23:05:09.785Z,16.29
2022-09-14T23:07:36.303Z,16.29
2022-09-14T23:10:02.737Z,16.30
2022-09-14T23:12:29.126Z,16.31
2022-09-14T23:14:55.681Z,16.32
2022-09-14T23:17:22.971Z,16.32
2022-09-14T23:19:49.896Z,16.33
2022-09-14T23:22:17.227Z,16.33
2022-09-14T23:24:44.206Z,16.35
2022-09-14T23:27:10.625Z,16.37
2022-09-14T23:29:37.165Z,16.38
2022-09-14T23:32:04.087Z,16.40
2022-09-14T23:34:30.470Z,16.41
2022-09-14T23:36:57.374Z,16.41
2022-09-14T23:39:25.616Z,16.41
2022-09-14T23:41:51.987Z,16.42
2022-09-14T23:44:18.412Z,16.44
2022-09-14T23:46:44.852Z,16.46
2022-09-14T23:49:12.438Z,16.47
2022-09-14T23:51:40.195Z,16.48
2022-09-14T23:54:08.192Z,16.49
2022-09-14T23:56:35.550Z,16.49
2022-09-14T23:59:02.058Z,16.50
